createdAt,value
2023-03-03T00:01:15.515Z,95048.78
2023-03-03T00:03:42.609Z,95056.09
2023-03-03T00:06:11.750Z,95049.50
2023-03-03T00:08:38.687Z,95053.91
2023-03-03T00:11:07.953Z,95056.47
2023-03-03T00:13:55.696Z,95047.13
2023-03-03T00:16:28.066Z,95055.47
2023-03-03T00:18:55.397Z,95055.47
2023-03-03T00:21:42.983Z,95047.69
2023-03-03T00:24:24.839Z,95053.47
2023-03-03T00:26:57.777Z,95051.59
2023-03-03T00:29:29.477Z,95052.88
2023-03-03T00:32:04.590Z,95051.16
2023-03-03T00:34:31.800Z,95043.16
2023-03-03T00:36:58.372Z,95044.16
2023-03-03T00:39:31.268Z,95046.31
2023-03-03T00:42:00.533Z,95043.25
2023-03-03T00:44:56.274Z,95044.63
2023-03-03T00:47:31.467Z,95051.66
2023-03-03T00:50:18.285Z,95050.78
2023-03-03T00:52:52.887Z,95056.75
2023-03-03T00:55:19.537Z,95054.19
2023-03-03T00:57:46.759Z,95057.56
2023-03-03T01:00:15.077Z,95060.19
2023-03-03T01:02:41.683Z,95061.91
2023-03-03T01:05:12.993Z,95071.97
2023-03-03T01:07:39.947Z,95064.47
2023-03-03T01:10:07.170Z,95062.84
2023-03-03T01:12:34.557Z,95069.53
2023-03-03T01:15:01.221Z,95061.47
2023-03-03T01:17:28.915Z,95071.97
2023-03-03T01:19:56.762Z,95063.28
2023-03-03T01:22:23.442Z,95058.03
2023-03-03T01:24:50.354Z,95059.75
2023-03-03T01:27:17.093Z,95058.31
2023-03-03T01:29:43.843Z,95054.69
2023-03-03T01:32:10.660Z,95060.03
2023-03-03T01:34:37.182Z,95059.03
2023-03-03T01:37:04.521Z,95050.84
2023-03-03T01:39:31.043Z,95055.78
2023-03-03T01:41:57.885Z,95046.06
2023-03-03T01:44:24.487Z,95051.22
2023-03-03T01:47:06.225Z,95046.78
2023-03-03T01:49:58.557Z,95050.25
2023-03-03T01:52:30.440Z,95049.50
2023-03-03T01:54:59.457Z,95043.06
2023-03-03T01:57:35.483Z,95043.34
2023-03-03T02:00:05.695Z,95045.78
2023-03-03T02:02:40.146Z,95038.91
2023-03-03T02:05:07.642Z,95037.44
2023-03-03T02:07:35.649Z,95039.63
2023-03-03T02:10:05.717Z,95030.28
2023-03-03T02:12:36.157Z,95032.47
2023-03-03T02:15:16.385Z,95036.97
2023-03-03T02:17:43.473Z,95036.25
2023-03-03T02:20:20.578Z,95034.78
2023-03-03T02:22:57.282Z,95038.34
2023-03-03T02:25:58.602Z,95037.25
2023-03-03T02:28:29.958Z,95031.81
2023-03-03T02:30:58.163Z,95034.72
2023-03-03T02:33:26.482Z,95032.53
2023-03-03T02:35:53.324Z,95029.44
2023-03-03T02:38:35.304Z,95021.81
2023-03-03T02:41:31.056Z,95026.00
2023-03-03T02:44:05.630Z,95023.91
2023-03-03T02:46:38.867Z,95021.47
2023-03-03T02:49:08.677Z,95024.69
2023-03-03T02:51:36.946Z,95017.00
2023-03-03T02:54:05.550Z,95021.63
2023-03-03T02:56:33.181Z,95022.06
2023-03-03T02:59:00.146Z,95021.66
2023-03-03T03:01:28.295Z,95023.38
2023-03-03T03:03:54.993Z,95019.47
2023-03-03T03:06:23.165Z,95022.34
2023-03-03T03:08:49.954Z,95022.44
2023-03-03T03:11:16.778Z,95016.94
2023-03-03T03:13:44.955Z,95016.84
2023-03-03T03:16:12.818Z,95014.94
2023-03-03T03:18:39.851Z,95017.13
2023-03-03T03:21:11.467Z,95017.31
2023-03-03T03:23:40.428Z,95017.75
2023-03-03T03:26:07.778Z,95018.25
2023-03-03T03:28:34.984Z,95017.06
2023-03-03T03:31:02.962Z,95021.72
2023-03-03T03:33:29.795Z,95028.22
2023-03-03T03:35:58.597Z,95027.19
2023-03-03T03:38:27.121Z,95035.25
2023-03-03T03:40:55.019Z,95028.34
2023-03-03T03:43:22.778Z,95036.25
2023-03-03T03:45:49.743Z,95039.53
2023-03-03T03:48:17.620Z,95038.53
2023-03-03T03:50:47.818Z,95035.84
2023-03-03T03:53:16.088Z,95035.56
2023-03-03T03:55:42.995Z,95044.00
2023-03-03T03:58:13.959Z,95046.13
2023-03-03T04:00:42.360Z,95044.31
2023-03-03T04:03:10.962Z,95033.22
2023-03-03T04:05:38.059Z,95030.75
2023-03-03T04:08:06.377Z,95023.88
2023-03-03T04:10:33.575Z,95030.41
2023-03-03T04:13:00.317Z,95035.13
2023-03-03T04:15:27.108Z,95025.63
2023-03-03T04:17:54.673Z,95026.47
2023-03-03T04:20:21.345Z,95029.00
2023-03-03T04:22:48.621Z,95032.91
2023-03-03T04:25:16.951Z,95031.13
2023-03-03T04:27:45.636Z,95038.47
2023-03-03T04:30:15.872Z,95027.06
2023-03-03T04:32:45.741Z,95026.16
2023-03-03T04:35:13.408Z,95038.94
2023-03-03T04:37:43.168Z,95032.78
2023-03-03T04:40:12.019Z,95034.81
2023-03-03T04:42:40.238Z,95038.00
2023-03-03T04:45:09.158Z,95030.75
2023-03-03T04:47:36.422Z,95036.44
2023-03-03T04:50:03.564Z,95044.88
2023-03-03T04:52:32.261Z,95034.81
2023-03-03T04:54:59.292Z,95030.56
2023-03-03T04:57:26.886Z,95033.81
2023-03-03T04:59:54.359Z,95031.66
2023-03-03T05:02:21.286Z,95034.22
2023-03-03T05:04:48.266Z,95035.91
2023-03-03T05:07:14.846Z,95036.47
2023-03-03T05:09:41.790Z,95034.03
2023-03-03T05:12:08.455Z,95041.47
2023-03-03T05:14:35.102Z,95040.56
2023-03-03T05:17:03.394Z,95040.47
2023-03-03T05:19:30.178Z,95040.31
2023-03-03T05:21:57.579Z,95038.41
2023-03-03T05:24:24.413Z,95038.22
2023-03-03T05:26:51.032Z,95031.34
2023-03-03T05:29:17.831Z,95029.53
2023-03-03T05:31:45.762Z,95032.69
2023-03-03T05:34:12.507Z,95045.38
2023-03-03T05:36:39.141Z,95044.59
2023-03-03T05:39:05.925Z,95039.41
2023-03-03T05:41:32.700Z,95046.84
2023-03-03T05:43:59.336Z,95047.56
2023-03-03T05:46:26.208Z,95046.50
2023-03-03T05:48:52.918Z,95054.94
2023-03-03T05:51:19.775Z,95057.28
2023-03-03T05:53:46.346Z,95048.59
2023-03-03T05:56:12.887Z,95062.09
2023-03-03T05:58:39.440Z,95069.53
2023-03-03T06:01:06.157Z,95064.66
2023-03-03T06:03:33.476Z,95072.16
2023-03-03T06:06:00.150Z,95068.00
2023-03-03T06:08:26.902Z,95073.16
2023-03-03T06:10:53.698Z,95076.31
2023-03-03T06:13:20.616Z,95079.78
2023-03-03T06:15:47.195Z,95079.59
2023-03-03T06:18:13.932Z,95077.06
2023-03-03T06:20:40.459Z,95082.88
2023-03-03T06:23:07.194Z,95084.22
2023-03-03T06:25:35.875Z,95083.44
2023-03-03T06:28:03.909Z,95088.41
2023-03-03T06:30:30.783Z,95089.03
2023-03-03T06:32:57.599Z,95096.22
2023-03-03T06:35:24.478Z,95097.94
2023-03-03T06:37:51.856Z,95099.47
2023-03-03T06:40:18.604Z,95107.59
2023-03-03T06:42:45.964Z,95112.84
2023-03-03T06:45:12.946Z,95105.44
2023-03-03T06:47:39.778Z,95104.25
2023-03-03T06:50:07.228Z,95105.72
2023-03-03T06:52:34.151Z,95108.78
2023-03-03T06:55:09.810Z,95111.88
2023-03-03T06:57:37.032Z,95115.81
2023-03-03T07:00:18.372Z,95117.06
2023-03-03T07:02:45.008Z,95118.53
2023-03-03T07:05:17.893Z,95119.81
2023-03-03T07:07:45.010Z,95120.34
2023-03-03T07:10:27.882Z,95122.44
2023-03-03T07:12:58.368Z,95120.56
2023-03-03T07:15:32.832Z,95117.81
2023-03-03T07:18:00.052Z,95124.72
2023-03-03T07:20:35.197Z,95123.63
2023-03-03T07:23:18.730Z,95132.81
2023-03-03T07:25:46.649Z,95131.88
2023-03-03T07:28:29.502Z,95133.34
2023-03-03T07:30:58.026Z,95137.25
2023-03-03T07:33:35.190Z,95148.59
2023-03-03T07:36:03.723Z,95142.59
2023-03-03T07:38:49.615Z,95143.13
2023-03-03T07:41:20.853Z,95150.13
2023-03-03T07:44:06.463Z,95154.31
2023-03-03T07:46:52.657Z,95159.47
2023-03-03T07:49:23.656Z,95159.41
2023-03-03T07:51:57.349Z,95158.66
2023-03-03T07:54:35.994Z,95167.56
2023-03-03T07:57:21.023Z,95168.09
2023-03-03T07:59:52.247Z,95164.31
2023-03-03T08:03:04.111Z,95160.94
2023-03-03T08:05:35.958Z,95164.56
2023-03-03T08:08:26.925Z,95158.59
2023-03-03T08:10:55.487Z,95164.94
2023-03-03T08:13:43.103Z,95161.47
2023-03-03T08:16:09.722Z,95168.72
2023-03-03T08:18:39.988Z,95166.66
2023-03-03T08:21:26.300Z,95163.84
2023-03-03T08:23:53.753Z,95164.28
2023-03-03T08:26:22.192Z,95162.66
2023-03-03T08:28:49.504Z,95164.72
2023-03-03T08:31:27.988Z,95166.50
2023-03-03T08:34:04.626Z,95157.25
2023-03-03T08:36:33.642Z,95155.50
2023-03-03T08:39:01.971Z,95161.03
2023-03-03T08:41:28.674Z,95157.38
2023-03-03T08:43:55.186Z,95156.44
2023-03-03T08:46:21.988Z,95161.03
2023-03-03T08:48:49.872Z,95164.47
2023-03-03T08:51:16.536Z,95165.88
2023-03-03T08:53:43.156Z,95165.34
2023-03-03T08:56:10.646Z,95165.53
2023-03-03T08:58:37.533Z,95171.34
2023-03-03T09:01:04.922Z,95163.25
2023-03-03T09:03:31.786Z,95163.84
2023-03-03T09:05:58.418Z,95165.91
2023-03-03T09:08:25.141Z,95173.38
2023-03-03T09:10:51.866Z,95181.84
2023-03-03T09:13:19.804Z,95181.75
2023-03-03T09:15:47.669Z,95185.94
2023-03-03T09:18:18.876Z,95189.22
2023-03-03T09:20:45.516Z,95189.53
2023-03-03T09:23:31.124Z,95190.34
2023-03-03T09:26:11.664Z,95191.16
2023-03-03T09:28:38.211Z,95187.91
2023-03-03T09:31:22.211Z,95190.56
2023-03-03T09:33:55.129Z,95185.56
2023-03-03T09:36:38.584Z,95190.72
2023-03-03T09:39:31.985Z,95193.22
2023-03-03T09:42:07.638Z,95192.06
2023-03-03T09:44:37.122Z,95199.81
2023-03-03T09:47:06.656Z,95204.25
2023-03-03T09:49:36.355Z,95201.47
2023-03-03T09:52:16.291Z,95212.22
2023-03-03T09:55:00.928Z,95214.50
2023-03-03T09:57:36.292Z,95213.50
2023-03-03T10:00:15.997Z,95213.63
2023-03-03T10:03:08.692Z,95222.34
2023-03-03T10:05:55.585Z,95227.28
2023-03-03T10:08:37.124Z,95226.19
2023-03-03T10:11:22.704Z,95225.94
2023-03-03T10:14:20.481Z,95234.91
2023-03-03T10:16:56.501Z,95224.66
2023-03-03T10:19:38.512Z,95227.03
2023-03-03T10:22:10.889Z,95223.22
2023-03-03T10:24:59.652Z,95228.72
2023-03-03T10:27:45.752Z,95226.16
2023-03-03T10:30:38.953Z,95227.47
2023-03-03T10:33:22.544Z,95223.41
2023-03-03T10:36:08.704Z,95222.13
2023-03-03T10:38:55.720Z,95227.22
2023-03-03T10:41:55.184Z,95231.13
2023-03-03T10:44:38.600Z,95226.53
2023-03-03T10:47:44.374Z,95230.72
2023-03-03T10:50:28.204Z,95227.06
2023-03-03T10:53:27.447Z,95225.16
2023-03-03T10:56:11.136Z,95224.91
2023-03-03T10:58:40.744Z,95217.34
2023-03-03T11:01:25.593Z,95217.59
2023-03-03T11:04:01.277Z,95211.41
2023-03-03T11:06:58.810Z,95212.97
2023-03-03T11:10:01.229Z,95218.09
2023-03-03T11:12:51.617Z,95213.91
2023-03-03T11:15:44.825Z,95225.66
2023-03-03T11:18:42.573Z,95226.94
2023-03-03T11:21:27.944Z,95221.78
2023-03-03T11:24:00.847Z,95229.72
2023-03-03T11:26:41.884Z,95232.19
2023-03-03T11:29:45.495Z,95224.84
2023-03-03T11:32:36.937Z,95234.25
2023-03-03T11:35:44.123Z,95227.06
2023-03-03T11:38:19.605Z,95230.69
2023-03-03T11:40:53.670Z,95226.41
2023-03-03T11:43:37.754Z,95226.94
2023-03-03T11:46:13.098Z,95210.03
2023-03-03T11:49:01.954Z,95225.91
2023-03-03T11:51:34.202Z,95216.72
2023-03-03T11:54:24.004Z,95219.75
2023-03-03T11:56:54.750Z,95213.09
2023-03-03T11:59:39.323Z,95212.28
2023-03-03T12:02:27.182Z,95207.38
2023-03-03T12:05:04.948Z,95204.25
2023-03-03T12:08:14.202Z,95205.31
2023-03-03T12:10:59.490Z,95199.72
2023-03-03T12:13:39.676Z,95190.41
2023-03-03T12:16:15.981Z,95195.28
2023-03-03T12:19:01.587Z,95188.94
2023-03-03T12:21:37.001Z,95198.81
2023-03-03T12:24:06.678Z,95195.03
2023-03-03T12:27:08.606Z,95192.84
2023-03-03T12:30:20.097Z,95191.81
2023-03-03T12:33:08.285Z,95185.28
2023-03-03T12:35:50.518Z,95184.34
2023-03-03T12:38:44.915Z,95183.50
2023-03-03T12:41:33.315Z,95179.44
2023-03-03T12:44:03.147Z,95171.75
2023-03-03T12:46:32.737Z,95181.41
2023-03-03T12:48:59.353Z,95180.44
2023-03-03T12:52:01.311Z,95181.06
2023-03-03T12:54:39.353Z,95184.19
2023-03-03T12:57:27.470Z,95177.28
2023-03-03T13:00:15.985Z,95181.69
2023-03-03T13:03:05.610Z,95183.75
2023-03-03T13:05:50.903Z,95188.72
2023-03-03T13:08:39.172Z,95185.72
2023-03-03T13:11:29.002Z,95186.63
2023-03-03T13:14:19.122Z,95196.06
2023-03-03T13:16:58.989Z,95196.06
2023-03-03T13:19:42.721Z,95179.13
2023-03-03T13:22:18.005Z,95177.72
2023-03-03T13:24:44.701Z,95169.09
2023-03-03T13:27:19.098Z,95173.44
2023-03-03T13:30:19.621Z,95182.69
2023-03-03T13:33:07.342Z,95183.41
2023-03-03T13:35:42.950Z,95180.59
2023-03-03T13:38:13.903Z,95182.81
2023-03-03T13:40:45.288Z,95190.59
2023-03-03T13:43:24.128Z,95189.19
2023-03-03T13:46:14.939Z,95192.47
2023-03-03T13:48:52.183Z,95187.22
2023-03-03T13:51:46.739Z,95182.34
2023-03-03T13:54:19.212Z,95176.50
2023-03-03T13:56:48.509Z,95171.09
2023-03-03T13:59:32.065Z,95168.69
2023-03-03T14:02:16.779Z,95168.19
2023-03-03T14:05:31.540Z,95166.00
2023-03-03T14:08:07.578Z,95157.94
2023-03-03T14:10:57.060Z,95158.94
2023-03-03T14:13:55.928Z,95148.56
2023-03-03T14:16:28.719Z,95150.38
2023-03-03T14:19:02.416Z,95144.06
2023-03-03T14:21:36.611Z,95141.63
2023-03-03T14:24:17.088Z,95139.72
2023-03-03T14:26:55.970Z,95141.78
2023-03-03T14:29:28.883Z,95141.06
2023-03-03T14:32:01.968Z,95130.50
2023-03-03T14:34:40.087Z,95131.88
2023-03-03T14:37:29.984Z,95127.72
2023-03-03T14:40:17.184Z,95131.47
2023-03-03T14:42:52.702Z,95140.09
2023-03-03T14:45:40.114Z,95135.28
2023-03-03T14:48:23.718Z,95133.56
2023-03-03T14:50:53.932Z,95135.94
2023-03-03T14:53:42.514Z,95141.59
2023-03-03T14:56:23.738Z,95142.03
2023-03-03T14:58:54.298Z,95132.91
2023-03-03T15:01:30.564Z,95138.72
2023-03-03T15:03:57.416Z,95137.59
2023-03-03T15:06:51.639Z,95148.97
2023-03-03T15:09:24.401Z,95141.72
2023-03-03T15:11:53.238Z,95145.53
2023-03-03T15:14:23.123Z,95148.19
2023-03-03T15:16:49.762Z,95146.38
2023-03-03T15:19:38.175Z,95140.75
2023-03-03T15:22:20.291Z,95156.66
2023-03-03T15:25:09.033Z,95153.16
2023-03-03T15:27:41.886Z,95148.16
2023-03-03T15:30:24.905Z,95149.91
2023-03-03T15:33:03.151Z,95143.84
2023-03-03T15:35:48.255Z,95157.22
2023-03-03T15:38:17.911Z,95157.47
2023-03-03T15:41:06.427Z,95152.75
2023-03-03T15:43:51.130Z,95157.38
2023-03-03T15:46:25.710Z,95155.06
2023-03-03T15:49:11.382Z,95156.38
2023-03-03T15:52:03.399Z,95154.69
2023-03-03T15:54:44.911Z,95156.91
2023-03-03T15:57:21.921Z,95154.56
2023-03-03T15:59:59.379Z,95155.44
2023-03-03T16:02:49.132Z,95156.28
2023-03-03T16:05:33.341Z,95158.88
2023-03-03T16:08:00.089Z,95156.06
2023-03-03T16:10:46.424Z,95163.63
2023-03-03T16:13:46.983Z,95155.09
2023-03-03T16:16:19.513Z,95162.75
2023-03-03T16:18:58.522Z,95164.66
2023-03-03T16:21:47.631Z,95166.28
2023-03-03T16:24:47.946Z,95162.44
2023-03-03T16:27:32.753Z,95167.47
2023-03-03T16:30:30.135Z,95165.97
2023-03-03T16:33:08.879Z,95170.88
2023-03-03T16:35:46.671Z,95174.69
2023-03-03T16:38:19.617Z,95174.53
2023-03-03T16:40:59.777Z,95177.50
2023-03-03T16:43:32.418Z,95184.97
2023-03-03T16:46:42.212Z,95183.91
2023-03-03T16:49:27.190Z,95190.66
2023-03-03T16:51:59.654Z,95186.59
2023-03-03T16:54:54.236Z,95191.47
2023-03-03T16:57:48.944Z,95193.63
2023-03-03T17:00:29.490Z,95195.75
2023-03-03T17:03:05.236Z,95190.03
2023-03-03T17:05:54.448Z,95193.91
2023-03-03T17:08:33.313Z,95194.81
2023-03-03T17:11:25.522Z,95199.13
2023-03-03T17:14:01.805Z,95200.03
2023-03-03T17:16:49.804Z,95207.00
2023-03-03T17:19:40.480Z,95209.66
2023-03-03T17:22:27.575Z,95210.53
2023-03-03T17:25:17.498Z,95208.75
2023-03-03T17:28:02.399Z,95212.66
2023-03-03T17:30:39.099Z,95218.09
2023-03-03T17:34:02.904Z,95222.88
2023-03-03T17:36:46.267Z,95228.47
2023-03-03T17:39:27.504Z,95227.31
2023-03-03T17:42:12.074Z,95233.09
2023-03-03T17:44:50.690Z,95235.22
2023-03-03T17:48:11.126Z,95236.44
2023-03-03T17:50:43.838Z,95240.56
2023-03-03T17:53:15.923Z,95247.16
2023-03-03T17:55:48.341Z,95253.56
2023-03-03T17:58:55.576Z,95248.03
2023-03-03T18:01:59.147Z,95260.97
2023-03-03T18:04:34.720Z,95257.06
2023-03-03T18:07:14.505Z,95256.13
2023-03-03T18:10:14.191Z,95261.56
2023-03-03T18:12:47.347Z,95261.50
2023-03-03T18:15:33.106Z,95261.16
2023-03-03T18:18:21.657Z,95264.41
2023-03-03T18:21:09.562Z,95271.97
2023-03-03T18:23:47.374Z,95270.31
2023-03-03T18:26:35.095Z,95273.03
2023-03-03T18:29:13.645Z,95272.13
2023-03-03T18:31:45.861Z,95273.50
2023-03-03T18:34:21.704Z,95274.31
2023-03-03T18:36:53.365Z,95270.31
2023-03-03T18:39:50.244Z,95272.94
2023-03-03T18:42:16.745Z,95273.38
2023-03-03T18:44:44.652Z,95284.28
2023-03-03T18:47:11.924Z,95273.34
2023-03-03T18:50:07.766Z,95276.72
2023-03-03T18:52:35.238Z,95278.31
2023-03-03T18:55:23.672Z,95280.38
2023-03-03T18:58:28.447Z,95275.78
2023-03-03T19:00:57.030Z,95274.25
2023-03-03T19:03:46.861Z,95277.13
2023-03-03T19:06:32.950Z,95277.34
2023-03-03T19:08:59.611Z,95283.38
2023-03-03T19:11:44.890Z,95280.50
2023-03-03T19:14:17.465Z,95282.47
2023-03-03T19:16:45.366Z,95278.72
2023-03-03T19:19:14.879Z,95278.94
2023-03-03T19:21:43.465Z,95280.00
2023-03-03T19:24:16.722Z,95280.47
2023-03-03T19:26:51.816Z,95286.03
2023-03-03T19:29:36.839Z,95292.28
2023-03-03T19:32:31.108Z,95292.66
2023-03-03T19:35:20.143Z,95289.31
2023-03-03T19:37:58.984Z,95291.13
2023-03-03T19:40:37.023Z,95301.47
2023-03-03T19:43:22.335Z,95305.22
2023-03-03T19:46:19.709Z,95304.69
2023-03-03T19:48:52.380Z,95304.84
2023-03-03T19:51:45.460Z,95304.88
2023-03-03T19:54:23.446Z,95312.72
2023-03-03T19:56:54.807Z,95310.28
2023-03-03T19:59:37.401Z,95308.78
2023-03-03T20:02:28.986Z,95315.56
2023-03-03T20:05:20.103Z,95316.50
2023-03-03T20:07:54.790Z,95315.09
2023-03-03T20:10:45.962Z,95314.50
2023-03-03T20:13:42.299Z,95320.91
2023-03-03T20:16:24.460Z,95320.16
2023-03-03T20:19:29.227Z,95324.78
2023-03-03T20:22:11.086Z,95324.16
2023-03-03T20:24:50.295Z,95328.41
2023-03-03T20:27:19.919Z,95321.88
2023-03-03T20:30:16.837Z,95322.94
2023-03-03T20:33:18.128Z,95329.66
2023-03-03T20:36:04.964Z,95327.22
2023-03-03T20:38:43.653Z,95325.72
2023-03-03T20:41:41.501Z,95329.84
2023-03-03T20:44:17.218Z,95328.75
2023-03-03T20:46:52.990Z,95327.72
2023-03-03T20:49:22.489Z,95335.50
2023-03-03T20:51:58.524Z,95337.34
2023-03-03T20:54:37.620Z,95331.63
2023-03-03T20:57:34.062Z,95334.00
2023-03-03T21:00:03.585Z,95338.03
2023-03-03T21:02:45.393Z,95337.28
2023-03-03T21:05:18.658Z,95338.38
2023-03-03T21:08:03.103Z,95343.88
2023-03-03T21:10:35.465Z,95345.03
2023-03-03T21:13:34.131Z,95339.38
2023-03-03T21:16:10.868Z,95340.19
2023-03-03T21:18:37.981Z,95336.75
2023-03-03T21:21:05.346Z,95337.31
2023-03-03T21:23:32.127Z,95337.16
2023-03-03T21:25:58.882Z,95336.28
2023-03-03T21:28:27.448Z,95338.81
2023-03-03T21:31:07.976Z,95337.06
2023-03-03T21:33:55.876Z,95342.97
2023-03-03T21:36:47.350Z,95339.41
2023-03-03T21:39:30.771Z,95354.78
2023-03-03T21:41:57.435Z,95346.53
2023-03-03T21:44:37.583Z,95342.56
2023-03-03T21:47:07.335Z,95338.06
2023-03-03T21:49:34.400Z,95338.09
2023-03-03T21:52:02.045Z,95337.38
2023-03-03T21:54:29.491Z,95344.28
2023-03-03T21:56:56.223Z,95348.88
2023-03-03T21:59:23.334Z,95342.41
2023-03-03T22:01:49.929Z,95341.97
2023-03-03T22:04:16.774Z,95340.81
2023-03-03T22:06:43.887Z,95341.00
2023-03-03T22:09:11.046Z,95344.28
2023-03-03T22:11:39.589Z,95344.22
2023-03-03T22:14:07.243Z,95344.03
2023-03-03T22:16:34.660Z,95345.72
2023-03-03T22:19:02.772Z,95345.81
2023-03-03T22:21:30.101Z,95347.31
2023-03-03T22:23:57.544Z,95348.00
2023-03-03T22:26:24.427Z,95346.97
2023-03-03T22:28:50.979Z,95354.13
2023-03-03T22:31:19.158Z,95353.19
2023-03-03T22:33:47.462Z,95354.13
2023-03-03T22:36:15.412Z,95347.44
2023-03-03T22:38:42.266Z,95356.75
2023-03-03T22:41:09.358Z,95353.97
2023-03-03T22:43:36.112Z,95351.94
2023-03-03T22:46:02.891Z,95345.94
2023-03-03T22:48:30.929Z,95350.91
2023-03-03T22:50:57.875Z,95351.47
2023-03-03T22:53:25.718Z,95348.59
2023-03-03T22:55:53.322Z,95351.53
2023-03-03T22:58:20.610Z,95354.22
2023-03-03T23:00:48.647Z,95351.19
2023-03-03T23:03:15.722Z,95346.22
2023-03-03T23:05:43.315Z,95350.56
2023-03-03T23:08:13.351Z,95339.44
2023-03-03T23:10:40.515Z,95347.69
2023-03-03T23:13:08.575Z,95345.81
2023-03-03T23:15:35.468Z,95343.81
2023-03-03T23:18:02.925Z,95341.91
2023-03-03T23:20:31.846Z,95336.63
2023-03-03T23:22:58.948Z,95339.91
2023-03-03T23:25:25.790Z,95340.25
2023-03-03T23:27:53.827Z,95339.09
2023-03-03T23:30:22.203Z,95340.66
2023-03-03T23:32:49.312Z,95335.13
2023-03-03T23:35:16.828Z,95341.00
2023-03-03T23:37:43.543Z,95341.34
2023-03-03T23:40:11.064Z,95340.38
2023-03-03T23:42:37.726Z,95338.94
2023-03-03T23:45:05.027Z,95345.81
2023-03-03T23:47:31.590Z,95347.94
2023-03-03T23:49:58.288Z,95342.31
2023-03-03T23:52:25.092Z,95344.22
2023-03-03T23:54:53.136Z,95348.56
2023-03-03T23:57:20.172Z,95348.72
2023-03-03T23:59:46.958Z,95348.03
